Aviation Digital Data Service (ADDS)

Output produced by METARs form (0309 UTC 03 March 2015)
found at http://aviationweather.gov/adds/metars/
 
KVQQ 022321Z 0300/0324 08005KT P6SM SCT040 
     FM030300 VRB02KT 4SM BR SCT004 SCT035 
     FM030700 00000KT 3SM BR BKN003 
     FM031000 00000KT 1SM BR OVC003 
     FM031400 12005KT P6SM BKN010 
     FM031630 14007KT P6SM BKN035